Time;durP1;ratioP1;P1;durP2;ratioP2;P2;SDS_P1;SDS_P2;PMS_P1;PMS_P2;Temp;Humidity;BMP_temperature;BMP_pressure;BME280_temperature;BME280_humidity;BME280_pressure;Samples;Min_cycle;Max_cycle;Signal;HPM_P1;HPM_P2
2021/03/16 00:01:16;;;;;;;4.28;3.75;;;4.90;77.30;;;4.04;63.74;94244.97;5071434;28;20697;-79
2021/03/16 00:03:50;;;;;;;4.70;3.83;;;4.90;77.20;;;4.04;63.69;94245.78;5087306;28;20333;-79
2021/03/16 00:06:33;;;;;;;3.63;3.33;;;4.90;77.20;;;4.08;63.84;94243.66;5056790;28;20223;-79
2021/03/16 00:09:00;;;;;;;5.00;3.95;;;4.90;77.10;;;4.08;63.96;94244.47;5071749;28;20567;-79
2021/03/16 00:11:26;;;;;;;4.35;3.75;;;4.90;77.20;;;4.09;63.71;94243.50;5070890;28;20791;-79
2021/03/16 00:13:53;;;;;;;4.25;3.70;;;4.90;77.20;;;4.08;63.95;94243.66;5071055;28;20199;-79
2021/03/16 00:16:20;;;;;;;4.13;3.72;;;4.90;77.30;;;4.10;63.54;94247.72;5071018;28;20625;-79
2021/03/16 00:18:47;;;;;;;4.70;4.18;;;4.90;77.30;;;4.08;64.56;94247.06;5071004;28;20679;-78
2021/03/16 00:21:14;;;;;;;5.40;4.55;;;4.90;77.50;;;4.10;64.62;94249.47;5087598;28;20215;-79
2021/03/16 00:23:41;;;;;;;6.00;4.50;;;5.00;77.70;;;4.08;64.56;94243.66;5071069;28;20214;-79
2021/03/16 00:26:08;;;;;;;5.22;4.50;;;4.90;77.60;;;4.08;64.44;94247.06;5070919;28;20685;-78
2021/03/16 00:28:35;;;;;;;6.13;4.50;;;4.90;77.70;;;4.09;63.39;94240.91;5087793;28;20188;-79
2021/03/16 00:31:02;;;;;;;4.30;3.63;;;4.90;78.20;;;4.09;64.41;94243.50;5070790;28;20265;-79
2021/03/16 00:33:29;;;;;;;4.10;3.70;;;4.90;77.40;;;4.12;63.31;94250.13;5087875;28;20225;-78
2021/03/16 00:35:56;;;;;;;6.07;4.20;;;4.90;77.30;;;4.06;64.27;94243.03;5054223;28;20294;-79
2021/03/16 00:38:23;;;;;;;4.78;3.95;;;4.90;77.40;;;4.04;63.82;94243.19;5054200;28;20600;-79
2021/03/16 00:40:50;;;;;;;5.55;4.18;;;4.90;77.30;;;4.10;63.61;94252.91;5070802;28;20261;-78
2021/03/16 00:43:20;;;;;;;6.43;4.20;;;5.00;77.40;;;4.10;63.65;94249.47;5071113;28;20211;-79
2021/03/16 00:45:46;;;;;;;5.15;4.00;;;5.00;77.50;;;4.10;63.67;94245.13;5070766;28;20254;-79
2021/03/16 00:48:18;;;;;;;4.85;3.97;;;4.90;77.30;;;4.10;63.45;94252.06;5072503;28;20199;-79
2021/03/16 00:50:49;;;;;;;4.30;3.70;;;4.90;77.40;;;4.11;63.14;94244.16;5075387;28;20238;-79
2021/03/16 00:53:15;;;;;;;3.92;3.40;;;4.90;77.20;;;4.14;62.91;94261.16;5074676;28;20203;-79
2021/03/16 00:55:47;;;;;;;4.78;4.05;;;4.90;77.10;;;4.12;63.95;94247.53;5074447;28;20227;-78
2021/03/16 00:58:14;;;;;;;7.13;4.00;;;4.90;77.30;;;4.15;63.29;94252.38;5074725;28;20246;-79
2021/03/16 01:00:41;;;;;;;4.68;4.20;;;5.00;77.50;;;4.13;63.81;94252.56;5058367;28;20227;-79
2021/03/16 01:03:08;;;;;;;5.13;3.95;;;5.00;77.50;;;4.13;63.67;94252.56;5074497;28;20231;-79
2021/03/16 01:05:35;;;;;;;5.55;4.70;;;5.00;77.40;;;4.14;63.58;94256.78;5074021;28;20596;-79
2021/03/16 01:08:02;;;;;;;5.82;4.72;;;5.00;77.50;;;4.15;63.29;94253.19;5073781;28;20229;-78
2021/03/16 01:10:29;;;;;;;8.07;4.95;;;5.00;77.40;;;4.18;63.48;94246.06;5040295;28;20282;-79
2021/03/16 01:12:57;;;;;;;9.55;5.15;;;5.00;77.40;;;4.16;63.58;94248.81;5053377;28;20728;-78
2021/03/16 01:15:24;;;;;;;6.35;4.88;;;5.00;77.50;;;4.08;63.60;94241.88;5073565;28;20187;-79
2021/03/16 01:17:50;;;;;;;6.28;4.93;;;5.00;77.50;;;4.14;63.18;94248.97;5057711;28;20195;-78
2021/03/16 01:20:22;;;;;;;6.78;4.80;;;5.00;77.40;;;4.13;63.40;94247.38;5052554;28;20226;-79
2021/03/16 01:22:49;;;;;;;7.20;5.53;;;5.00;77.40;;;4.10;63.56;94257.28;5083797;28;20219;-78
2021/03/16 01:25:16;;;;;;;5.88;4.93;;;5.00;77.50;;;4.11;63.79;94251.94;5073904;28;20196;-78
2021/03/16 01:27:43;;;;;;;5.97;5.15;;;5.00;77.50;;;4.11;63.55;94253.69;5073892;28;20227;-78
2021/03/16 01:30:11;;;;;;;8.25;5.68;;;4.90;77.50;;;4.11;63.53;94254.53;5057132;28;20227;-79
2021/03/16 01:32:39;;;;;;;5.60;4.97;;;5.00;77.50;;;4.11;63.47;94261.47;5074044;28;20215;-79
2021/03/16 01:35:09;;;;;;;5.82;5.18;;;4.90;77.40;;;4.10;63.04;94257.28;5072238;28;20567;-79
2021/03/16 01:37:37;;;;;;;7.53;5.55;;;4.90;77.40;;;4.07;63.45;94266.19;5072959;28;20612;-78
2021/03/16 01:40:13;;;;;;;6.53;4.97;;;4.90;77.50;;;4.08;62.86;94265.22;5056955;28;20299;-79
2021/03/16 01:42:41;;;;;;;7.03;5.22;;;4.90;77.40;;;4.06;63.12;94266.38;5040647;28;20226;-78
2021/03/16 01:45:19;;;;;;;8.57;5.68;;;4.90;77.30;;;4.04;63.90;94260.53;5056978;28;20265;-79
2021/03/16 01:47:50;;;;;;;6.13;5.28;;;4.90;77.70;;;4.03;64.05;94267.53;5056978;28;20580;-79
2021/03/16 01:50:20;;;;;;;5.18;4.68;;;4.90;77.70;;;4.03;64.06;94266.69;5073144;28;20204;-78
2021/03/16 01:52:51;;;;;;;7.35;5.38;;;4.90;77.60;;;4.00;63.85;94254.88;5057066;28;20610;-78
2021/03/16 01:55:21;;;;;;;7.18;5.38;;;4.90;77.70;;;4.01;64.07;94261.69;5073566;28;20196;-79
2021/03/16 01:57:54;;;;;;;7.72;5.40;;;4.90;77.80;;;3.99;64.39;94261.03;5074277;28;20215;-80
2021/03/16 02:00:41;;;;;;;8.27;5.40;;;4.90;78.00;;;3.99;64.38;94263.63;5087158;28;20560;-79
2021/03/16 02:03:28;;;;;;;5.78;4.68;;;4.90;78.10;;;3.96;64.10;94258.78;5073449;28;20215;-79
2021/03/16 02:06:29;;;;;;;6.22;5.05;;;4.80;77.80;;;3.99;64.20;94258.44;5054014;28;20234;-78
2021/03/16 02:09:54;;;;;;;8.00;4.93;;;4.80;78.10;;;4.00;63.89;94258.28;5054331;28;20281;-79
2021/03/16 02:12:51;;;;;;;9.05;5.10;;;4.90;78.00;;;4.00;63.88;94260.06;5054430;28;20227;-78
2021/03/16 02:15:40;;;;;;;6.63;5.10;;;4.80;78.00;;;3.99;63.79;94255.84;5053631;28;20187;-78
2021/03/16 02:18:32;;;;;;;5.22;4.20;;;4.80;77.90;;;4.05;63.81;94257.75;5039654;28;20257;-79
2021/03/16 02:21:27;;;;;;;6.97;4.75;;;4.90;77.90;;;4.07;63.73;94271.38;5060999;28;20223;-79
2021/03/16 02:25:00;;;;;;;8.48;5.25;;;4.90;77.90;;;4.04;64.36;94270.91;5067316;28;20589;-78
2021/03/16 02:28:15;;;;;;;5.78;4.32;;;4.90;78.00;;;4.05;64.22;94267.34;5053361;28;20781;-79
2021/03/16 02:31:03;;;;;;;7.43;4.80;;;4.90;78.10;;;4.04;64.27;94274.34;5053727;28;20712;-78
2021/03/16 02:33:50;;;;;;;7.63;5.05;;;4.90;78.10;;;4.03;65.15;94279.66;5039123;28;20657;-78
2021/03/16 02:36:37;;;;;;;7.22;5.30;;;4.90;78.30;;;4.03;65.04;94277.06;5067461;28;20231;-79
2021/03/16 02:39:25;;;;;;;8.23;5.30;;;4.90;78.50;;;4.05;64.61;94267.34;5053131;28;20285;-79
2021/03/16 02:42:12;;;;;;;6.18;5.07;;;4.90;78.30;;;4.08;64.78;94280.00;5038799;28;20309;-79
2021/03/16 02:44:58;;;;;;;6.30;4.93;;;4.90;78.30;;;4.09;64.52;94279.00;5038909;28;20254;-79
2021/03/16 02:47:45;;;;;;;6.32;4.53;;;4.90;78.30;;;4.11;64.17;94282.25;5038998;28;20319;-79
2021/03/16 02:50:31;;;;;;;6.45;4.85;;;4.90;78.30;;;4.13;64.15;94285.50;5053802;28;20216;-79
2021/03/16 02:53:17;;;;;;;5.93;5.13;;;5.00;78.30;;;4.13;65.16;94298.47;5052755;28;20226;-79
2021/03/16 02:56:05;;;;;;;6.45;4.85;;;5.00;78.50;;;4.12;64.70;94289.06;5066621;28;20238;-79
2021/03/16 02:58:51;;;;;;;6.07;5.22;;;5.00;78.50;;;4.07;65.29;94299.94;5052579;28;20678;-79
2021/03/16 03:01:39;;;;;;;5.90;4.72;;;5.00;78.60;;;4.10;64.89;94306.56;5039077;28;20261;-79
2021/03/16 03:04:27;;;;;;;6.10;5.07;;;5.00;78.60;;;4.09;64.75;94308.38;5066541;28;20322;-79
2021/03/16 03:07:14;;;;;;;7.30;4.82;;;5.00;78.70;;;4.10;64.41;94316.97;5052588;28;20230;-79
2021/03/16 03:09:59;;;;;;;7.40;5.00;;;4.90;78.50;;;4.08;64.66;94313.75;5066328;28;20338;-78
2021/03/16 03:12:45;;;;;;;7.93;4.47;;;4.90;78.50;;;4.11;64.61;94321.19;5038250;28;20765;-78
2021/03/16 03:15:30;;;;;;;6.40;4.65;;;4.90;78.40;;;4.13;64.85;94324.44;5052246;28;20204;-78
2021/03/16 03:18:16;;;;;;;7.38;4.10;;;5.00;78.40;;;4.11;64.61;94321.19;5054054;28;20289;-78
2021/03/16 03:21:26;;;;;;;5.15;4.10;;;5.00;78.50;;;4.10;64.24;94332.53;5045494;28;20580;-79
2021/03/16 03:24:23;;;;;;;5.35;4.20;;;5.00;78.30;;;4.09;63.99;94333.50;5052602;28;20302;-78
2021/03/16 03:27:20;;;;;;;4.55;4.13;;;5.00;78.20;;;4.06;63.93;94334.66;5064701;28;20377;-79
2021/03/16 03:30:08;;;;;;;6.18;4.10;;;5.00;78.10;;;4.07;63.71;94338.06;5073242;28;20580;-79
2021/03/16 03:33:01;;;;;;;5.35;4.07;;;4.90;77.90;;;4.04;63.63;94341.81;5069664;28;20214;-79
2021/03/16 03:35:48;;;;;;;5.30;3.80;;;5.00;78.00;;;3.99;64.52;94341.47;5068372;28;20225;-79
2021/03/16 03:38:34;;;;;;;4.53;3.70;;;5.00;78.00;;;3.95;63.52;94343.59;5064191;28;20214;-80
2021/03/16 03:41:25;;;;;;;4.78;3.75;;;4.90;77.70;;;3.90;63.42;94347.66;5062395;28;20842;-79
2021/03/16 03:44:12;;;;;;;5.45;3.92;;;4.90;77.60;;;3.83;63.43;94353.50;5063758;28;20218;-79
2021/03/16 03:46:58;;;;;;;4.43;3.47;;;4.80;77.60;;;3.81;63.91;94349.47;5043989;28;20261;-79
2021/03/16 03:49:45;;;;;;;4.60;3.75;;;4.80;77.70;;;3.80;64.17;94355.63;5057631;28;20693;-78
2021/03/16 03:52:32;;;;;;;5.38;3.67;;;4.80;77.80;;;3.80;64.22;94353.81;5062617;28;20233;-79
2021/03/16 03:55:19;;;;;;;7.32;4.32;;;4.70;77.90;;;3.79;64.58;94361.78;5035716;28;20195;-79
2021/03/16 03:58:15;;;;;;;5.32;3.95;;;4.70;78.00;;;3.77;64.57;94361.94;5064927;28;20705;-78
2021/03/16 04:01:00;;;;;;;5.82;3.65;;;4.70;78.00;;;3.79;64.04;94354.78;5066730;28;20312;-78
2021/03/16 04:03:47;;;;;;;5.30;3.63;;;4.70;78.00;;;3.80;64.44;94373.78;5060477;28;20226;-79
2021/03/16 04:06:33;;;;;;;6.95;3.92;;;4.70;78.10;;;3.84;64.06;94362.91;5049552;28;20798;-79
2021/03/16 04:09:20;;;;;;;5.68;3.90;;;4.70;78.20;;;3.86;64.23;94362.75;5057868;28;20288;-79
2021/03/16 04:12:07;;;;;;;5.65;3.58;;;4.70;78.10;;;3.86;64.01;94362.75;5062277;28;20293;-78
2021/03/16 04:14:53;;;;;;;5.15;3.78;;;4.70;78.10;;;3.92;63.69;94363.84;5047419;28;20289;-80
2021/03/16 04:17:41;;;;;;;5.40;3.78;;;4.70;78.10;;;3.90;64.21;94360.63;5074082;28;20356;-79
2021/03/16 04:20:28;;;;;;;5.18;3.78;;;4.80;78.40;;;3.89;64.46;94372.78;5052644;28;20207;-78
2021/03/16 04:23:13;;;;;;;6.03;3.97;;;4.80;78.40;;;3.90;64.45;94371.81;5052529;28;20214;-79
2021/03/16 04:25:59;;;;;;;4.60;3.70;;;4.70;78.30;;;3.90;64.60;94371.81;5050111;28;20230;-78
2021/03/16 04:28:45;;;;;;;5.93;3.80;;;4.80;78.50;;;3.92;64.70;94369.03;5054054;28;20676;-78
2021/03/16 04:31:31;;;;;;;4.20;3.78;;;4.90;78.50;;;3.93;64.27;94373.25;5055470;28;20369;-79
2021/03/16 04:34:16;;;;;;;4.25;3.70;;;4.80;78.50;;;3.94;64.34;94378.31;5061581;28;20688;-78
2021/03/16 04:37:02;;;;;;;5.03;3.75;;;4.80;78.40;;;3.93;64.62;94376.69;5064218;28;20353;-78
2021/03/16 04:39:47;;;;;;;5.18;4.10;;;4.80;78.50;;;3.94;64.49;94390.47;5067901;28;20194;-78
2021/03/16 04:42:33;;;;;;;4.72;3.97;;;4.80;78.50;;;3.93;64.37;94387.06;5063144;28;20241;-78
2021/03/16 04:45:19;;;;;;;5.35;4.07;;;4.80;78.60;;;3.91;64.72;94389.00;5060874;28;20770;-80
2021/03/16 04:48:05;;;;;;;5.18;3.90;;;4.80;78.50;;;3.94;64.21;94390.47;5064619;28;20586;-79
2021/03/16 04:50:51;;;;;;;10.35;4.20;;;4.80;78.50;;;3.95;64.34;94394.69;5057141;28;20650;-79
2021/03/16 04:53:36;;;;;;;6.03;4.00;;;4.80;78.50;;;3.95;64.24;94394.69;5056815;28;20235;-79
2021/03/16 04:56:22;;;;;;;5.10;3.50;;;4.80;78.60;;;3.94;64.48;94406.84;5053661;28;20312;-79
2021/03/16 04:59:07;;;;;;;5.82;4.05;;;4.80;78.50;;;3.95;64.51;94394.69;5065265;28;20198;-79
2021/03/16 05:01:53;;;;;;;7.82;4.15;;;4.80;78.40;;;3.93;64.83;94400.03;5061130;28;20238;-79
2021/03/16 05:04:39;;;;;;;6.32;4.10;;;4.80;78.60;;;3.94;64.36;94406.03;5059372;28;20230;-80
2021/03/16 05:07:24;;;;;;;5.38;3.50;;;4.80;78.60;;;3.95;64.35;94411.03;5048943;28;20269;-79
2021/03/16 05:10:11;;;;;;;5.80;3.42;;;4.80;78.50;;;3.96;64.18;94406.69;5034916;28;20195;-80
2021/03/16 05:12:56;;;;;;;3.67;3.25;;;4.80;78.40;;;3.98;64.20;94420.31;5048992;28;20330;-80
2021/03/16 05:15:42;;;;;;;6.32;3.75;;;4.80;78.40;;;4.01;63.71;94418.16;5049270;28;20311;-79
2021/03/16 05:18:28;;;;;;;3.78;3.28;;;4.80;78.40;;;3.99;64.28;94409.75;5035358;28;20285;-79
2021/03/16 05:21:14;;;;;;;5.65;3.58;;;4.80;79.20;;;3.96;64.39;94420.44;5062334;28;20235;-79
2021/03/16 05:23:59;;;;;;;6.50;3.75;;;4.80;78.40;;;3.98;64.01;94425.50;5070889;28;20300;-80
2021/03/16 05:26:45;;;;;;;5.78;3.90;;;4.80;78.30;;;3.93;64.44;94420.78;5056301;28;20285;-79
2021/03/16 05:29:30;;;;;;;4.88;3.53;;;4.80;78.40;;;3.94;64.10;94421.59;5070953;28;20562;-79
2021/03/16 05:32:16;;;;;;;5.88;3.72;;;4.90;78.50;;;3.94;64.09;94426.78;5070710;28;20222;-80
2021/03/16 05:35:02;;;;;;;4.82;3.58;;;4.80;78.40;;;3.96;64.38;94432.63;5072311;28;20194;-80
2021/03/16 05:37:47;;;;;;;5.13;3.35;;;4.80;78.40;;;3.94;64.70;94437.16;5074339;28;20755;-79
2021/03/16 05:40:33;;;;;;;5.43;3.63;;;4.80;78.50;;;3.94;64.49;94429.38;5074054;28;20213;-79
2021/03/16 05:43:19;;;;;;;4.82;3.53;;;4.80;78.40;;;3.93;64.48;94435.53;5074371;28;20198;-79
2021/03/16 05:46:05;;;;;;;5.07;3.30;;;4.80;78.60;;;3.90;64.47;94438.47;5073997;28;20225;-79
2021/03/16 05:48:52;;;;;;;6.78;3.70;;;4.80;78.50;;;3.87;64.81;94433.59;5074306;28;20211;-79
2021/03/16 05:51:37;;;;;;;4.82;3.53;;;4.80;78.70;;;3.87;64.60;94442.19;5074280;28;20742;-79
2021/03/16 05:54:23;;;;;;;6.55;3.50;;;4.80;78.70;;;3.86;64.98;94445.75;5060482;28;20202;-79
2021/03/16 05:57:09;;;;;;;4.47;3.50;;;4.80;78.80;;;3.88;64.59;94448.19;5073666;28;20246;-79
2021/03/16 05:59:54;;;;;;;4.13;3.33;;;4.70;78.60;;;3.90;64.51;94454.84;5087766;28;20190;-81
2021/03/16 06:02:40;;;;;;;5.40;3.47;;;4.70;78.60;;;3.95;64.32;94459.53;5087991;28;20246;-78
2021/03/16 06:05:25;;;;;;;4.53;3.25;;;4.80;78.70;;;3.95;64.52;94459.53;5073615;28;20292;-79
2021/03/16 06:08:10;;;;;;;5.30;3.63;;;4.80;78.60;;;3.96;64.42;94469.75;5074132;28;20214;-79
2021/03/16 06:10:55;;;;;;;5.45;3.75;;;4.80;78.60;;;3.93;64.62;94464.91;5073296;28;20222;-79
2021/03/16 06:13:54;;;;;;;4.93;3.47;;;4.80;78.70;;;3.90;64.60;94467.81;5059785;28;20771;-79
2021/03/16 06:16:39;;;;;;;5.90;3.70;;;4.80;78.80;;;3.92;64.77;94470.22;5073710;28;20289;-79
2021/03/16 06:19:36;;;;;;;4.95;3.60;;;4.80;78.90;;;3.92;64.45;94465.88;5087636;28;20194;-80
2021/03/16 06:22:22;;;;;;;4.85;4.07;;;4.70;78.80;;;3.93;64.70;94480.47;5087764;28;20230;-80
2021/03/16 06:25:08;;;;;;;5.50;3.30;;;4.80;78.90;;;3.97;64.62;94486.16;5073492;28;20285;-81
2021/03/16 06:28:12;;;;;;;4.60;3.70;;;4.80;78.90;;;3.97;64.12;94488.75;5073389;28;20210;-80
2021/03/16 06:30:58;;;;;;;4.85;4.05;;;4.80;78.90;;;3.98;65.21;94511.13;5074058;28;20226;-79
2021/03/16 06:33:44;;;;;;;4.35;3.90;;;4.80;78.90;;;3.95;64.72;94488.09;5073210;28;20215;-80
2021/03/16 06:36:32;;;;;;;4.95;4.18;;;4.80;79.00;;;3.94;64.50;94491.66;5073048;28;20226;-80
2021/03/16 06:39:19;;;;;;;5.63;4.07;;;4.80;78.80;;;3.89;64.62;94497.31;5087540;28;20202;-79
2021/03/16 06:42:05;;;;;;;4.50;4.10;;;4.80;78.90;;;3.89;64.87;94501.69;5072706;28;20225;-80
2021/03/16 06:45:03;;;;;;;5.07;4.40;;;4.80;78.90;;;3.89;65.00;94510.28;5072901;28;20222;-80
2021/03/16 06:47:49;;;;;;;5.57;4.57;;;4.70;79.00;;;3.90;65.35;94517.09;5087314;28;20309;-80
2021/03/16 06:50:35;;;;;;;4.70;4.30;;;4.70;79.10;;;3.89;65.59;94520.66;5072787;28;20206;-79
2021/03/16 06:53:20;;;;;;;5.40;4.10;;;4.80;79.30;;;3.92;65.25;94525.53;5073158;28;20664;-79
2021/03/16 06:56:07;;;;;;;5.60;4.53;;;4.80;79.40;;;3.95;65.42;94539.97;5069721;28;20238;-81
2021/03/16 06:58:53;;;;;;;6.82;4.88;;;4.70;79.40;;;3.94;65.37;94530.56;5051367;28;20330;-80
2021/03/16 07:01:38;;;;;;;5.50;4.65;;;4.80;79.60;;;3.94;65.82;94540.94;5042408;28;20273;-80
2021/03/16 07:04:27;;;;;;;6.05;4.75;;;4.80;79.60;;;3.94;65.99;94534.00;5066167;28;20223;-80
2021/03/16 07:07:13;;;;;;;4.50;4.10;;;4.80;79.70;;;4.00;65.82;94532.53;5052032;28;20697;-80
2021/03/16 07:10:03;;;;;;;5.82;4.28;;;4.80;79.70;;;4.03;65.83;94550.38;5071460;28;20277;-81
2021/03/16 07:12:49;;;;;;;5.72;4.32;;;4.80;79.80;;;4.07;65.83;94540.50;5056734;28;20239;-80
2021/03/16 07:15:39;;;;;;;5.60;4.60;;;4.90;79.80;;;4.09;65.50;94544.53;5069815;28;20202;-80
2021/03/16 07:18:26;;;;;;;7.03;4.38;;;4.90;79.80;;;4.14;65.75;94550.06;5060291;28;20211;-80
2021/03/16 07:21:27;;;;;;;4.90;4.22;;;4.90;79.80;;;4.16;65.41;94553.31;5052885;28;20233;-80
2021/03/16 07:24:15;;;;;;;6.00;4.50;;;4.90;79.80;;;4.18;65.81;94550.53;5063724;28;20222;-80
2021/03/16 07:27:01;;;;;;;7.63;4.60;;;5.00;79.90;;;4.13;65.88;94553.63;5056763;28;20720;-80
2021/03/16 07:29:48;;;;;;;7.38;4.70;;;5.00;79.90;;;4.16;65.75;94561.09;5053668;28;20321;-81
2021/03/16 07:32:34;;;;;;;5.30;4.80;;;4.90;79.90;;;4.20;65.44;94555.56;5050041;28;20328;-80
2021/03/16 07:35:22;;;;;;;5.63;4.75;;;5.00;79.80;;;4.18;65.73;94573.09;5055326;28;20199;-79
2021/03/16 07:38:09;;;;;;;6.10;4.93;;;5.00;79.90;;;4.19;65.58;94564.31;5053385;28;20259;-78
2021/03/16 07:40:55;;;;;;;6.57;4.68;;;5.00;79.80;;;4.20;65.96;94571.97;5054364;28;20708;-79
2021/03/16 07:43:43;;;;;;;6.38;5.28;;;5.00;79.90;;;4.23;65.50;94574.22;5055116;28;20210;-79
2021/03/16 07:46:58;;;;;;;6.10;5.00;;;5.00;79.90;;;4.26;65.49;94570.50;5050777;28;20288;-79
2021/03/16 07:49:44;;;;;;;5.68;5.07;;;5.00;80.00;;;4.28;65.98;94569.34;5064573;28;20567;-79
2021/03/16 07:52:29;;;;;;;5.38;4.43;;;5.10;80.10;;;4.36;65.70;94580.72;5066551;28;20735;-79
2021/03/16 07:55:29;;;;;;;7.03;5.32;;;5.10;80.10;;;4.43;65.24;94581.72;5059951;28;20203;-79
2021/03/16 07:58:22;;;;;;;6.18;5.15;;;5.10;80.00;;;4.42;65.47;94588.69;5068605;28;20681;-79
2021/03/16 08:01:15;;;;;;;6.22;5.35;;;5.20;80.00;;;4.42;65.74;94590.47;5062800;28;20349;-81
2021/03/16 08:04:06;;;;;;;5.72;5.15;;;5.20;80.00;;;4.41;65.51;94587.06;5070968;28;20222;-81
2021/03/16 08:07:00;;;;;;;9.02;5.13;;;5.20;80.00;;;4.44;65.44;94598.91;5051077;28;20234;-81
2021/03/16 08:09:52;;;;;;;5.22;4.72;;;5.20;80.00;;;4.42;65.09;94591.28;5052720;28;20198;-80
2021/03/16 08:12:37;;;;;;;6.15;5.25;;;5.20;79.90;;;4.47;65.20;94607.19;5067010;28;20231;-81
2021/03/16 08:15:23;;;;;;;7.65;4.82;;;5.30;79.90;;;4.47;65.12;94607.19;5053018;28;20248;-82
2021/03/16 08:18:13;;;;;;;10.75;5.78;;;5.20;79.60;;;4.36;64.70;94601.50;5064066;28;20202;-80
2021/03/16 08:21:13;;;;;;;7.47;5.22;;;5.20;79.40;;;4.22;64.53;94616.72;5051498;28;20230;-80
2021/03/16 08:24:13;;;;;;;6.38;5.25;;;5.20;79.30;;;4.10;64.85;94608.47;5064882;28;20226;-80
2021/03/16 08:26:59;;;;;;;6.68;5.50;;;5.10;79.30;;;4.03;65.89;94617.03;5048552;28;20246;-79
2021/03/16 08:29:49;;;;;;;6.72;5.55;;;5.00;79.40;;;3.99;66.33;94621.72;5068334;28;20201;-79
2021/03/16 08:32:36;;;;;;;6.60;5.30;;;5.00;79.80;;;3.97;65.82;94623.66;5066368;28;20388;-79
2021/03/16 08:35:22;;;;;;;7.45;5.53;;;4.90;80.60;;;4.00;66.00;94631.13;5054602;28;20195;-79
2021/03/16 08:38:09;;;;;;;6.70;5.53;;;4.90;79.80;;;4.01;65.97;94636.16;5056458;28;20210;-79
2021/03/16 08:41:09;;;;;;;7.07;5.25;;;4.90;79.80;;;4.04;65.75;94639.41;5066046;28;20226;-79
2021/03/16 08:43:54;;;;;;;6.78;5.30;;;4.90;79.90;;;4.06;65.85;94645.25;5065726;28;20222;-79
2021/03/16 08:46:40;;;;;;;5.47;4.97;;;4.90;80.00;;;4.09;65.89;94635.38;5060445;28;20727;-78
2021/03/16 08:49:27;;;;;;;7.00;5.20;;;4.90;80.00;;;4.09;66.45;94642.34;5068261;28;20206;-79
2021/03/16 08:52:28;;;;;;;8.18;5.22;;;4.90;80.00;;;4.11;65.66;94656.81;5049901;28;20289;-79
2021/03/16 08:55:31;;;;;;;6.43;5.60;;;4.90;80.10;;;4.11;65.45;94646.41;5063992;28;20219;-79
2021/03/16 08:58:17;;;;;;;7.15;5.25;;;4.90;80.10;;;4.15;66.53;94657.28;5049594;28;20226;-79
2021/03/16 09:01:02;;;;;;;9.27;5.32;;;4.90;80.20;;;4.17;66.42;94647.56;5052845;28;20233;-79
2021/03/16 09:03:51;;;;;;;6.20;5.38;;;5.00;80.30;;;4.20;66.56;94654.22;5061048;28;20285;-79
2021/03/16 09:06:38;;;;;;;8.10;5.70;;;5.00;80.40;;;4.24;66.34;94655.53;5049940;28;20238;-79
2021/03/16 09:09:27;;;;;;;8.00;5.03;;;5.00;80.50;;;4.27;66.01;94657.78;5066935;28;20210;-79
2021/03/16 09:12:13;;;;;;;6.15;4.97;;;5.00;80.40;;;4.30;66.15;94663.47;5058166;28;20221;-79
2021/03/16 09:15:31;;;;;;;6.20;5.13;;;5.00;80.50;;;4.37;65.86;94663.69;5070767;28;20202;-79
2021/03/16 09:18:17;;;;;;;5.25;4.43;;;5.10;80.40;;;4.42;65.87;94665.78;5073072;28;20695;-79
2021/03/16 09:21:06;;;;;;;4.75;4.35;;;5.10;80.40;;;4.47;65.78;94666.13;5060169;28;20238;-79
2021/03/16 09:23:51;;;;;;;5.90;4.57;;;5.10;80.40;;;4.47;65.95;94661.72;5074619;28;20202;-79
2021/03/16 09:26:37;;;;;;;5.15;4.43;;;5.20;80.60;;;4.53;65.87;94672.44;5073364;28;20222;-80
2021/03/16 09:29:26;;;;;;;5.28;4.68;;;5.20;80.60;;;4.57;65.77;94673.75;5074535;28;20214;-80
2021/03/16 09:32:18;;;;;;;5.18;4.60;;;5.20;80.60;;;4.63;65.62;94686.09;5054519;28;20240;-81
2021/03/16 09:35:05;;;;;;;6.00;5.10;;;5.30;80.40;;;4.63;65.55;94676.53;5065359;28;20199;-81
2021/03/16 09:37:53;;;;;;;5.75;5.22;;;5.30;80.30;;;4.57;65.48;94668.56;5040273;28;20705;-80
2021/03/16 09:40:44;;;;;;;5.97;4.72;;;5.30;80.10;;;4.57;65.42;94673.75;5051684;28;20192;-80
2021/03/16 09:43:34;;;;;;;9.00;6.05;;;5.30;80.00;;;4.52;65.24;94673.41;5041576;28;20200;-80
2021/03/16 09:46:12;;;;;;;8.88;5.60;;;5.40;80.00;;;4.54;65.54;94672.31;5074003;28;20223;-80
2021/03/16 09:48:48;;;;;;;8.27;5.80;;;5.30;79.90;;;4.55;65.09;94673.09;5057439;28;20688;-79
2021/03/16 09:51:19;;;;;;;7.97;5.80;;;5.30;79.80;;;4.52;65.01;94679.44;5033778;28;20310;-79
2021/03/16 09:53:52;;;;;;;5.75;5.15;;;5.30;79.80;;;4.47;65.15;94692.91;5063847;28;20195;-79
2021/03/16 09:56:33;;;;;;;8.80;5.47;;;5.30;79.80;;;4.42;65.50;94696.94;5055641;28;20269;-80
2021/03/16 09:59:02;;;;;;;7.80;6.13;;;5.30;79.80;;;4.39;65.75;94699.84;5071676;28;20433;-80
2021/03/16 10:01:39;;;;;;;7.60;5.63;;;5.30;80.00;;;4.48;65.69;94678.16;5055903;28;20226;-80
2021/03/16 10:04:13;;;;;;;7.45;5.93;;;5.20;80.20;;;4.57;66.20;94687.56;5037766;28;20211;-80
2021/03/16 10:06:42;;;;;;;7.30;5.50;;;5.20;80.60;;;4.70;66.03;94676.72;5054567;28;20273;-80
2021/03/16 10:09:16;;;;;;;6.90;5.35;;;5.20;80.90;;;4.87;66.23;94687.09;5055280;28;20592;-80
2021/03/16 10:11:44;;;;;;;7.90;6.30;;;5.30;81.10;;;5.02;65.64;94679.47;5039579;28;20227;-80
2021/03/16 10:14:11;;;;;;;9.05;6.05;;;5.40;81.10;;;5.14;65.56;94680.78;5072907;28;20203;-80
2021/03/16 10:16:39;;;;;;;8.13;5.72;;;5.50;81.20;;;5.22;65.78;94680.75;5069171;28;20230;-80
2021/03/16 10:19:06;;;;;;;8.40;5.78;;;5.60;81.20;;;5.29;65.50;94679.09;5063859;28;20300;-80
2021/03/16 10:21:35;;;;;;;7.05;5.45;;;5.70;81.20;;;5.35;64.56;94674.25;5047743;28;20219;-81
2021/03/16 10:24:05;;;;;;;6.95;5.40;;;5.70;80.50;;;5.36;64.89;94670.66;5054305;28;20227;-80
2021/03/16 10:26:33;;;;;;;6.78;5.47;;;5.80;80.70;;;5.45;64.88;94690.47;5034771;28;20223;-80
2021/03/16 10:29:12;;;;;;;8.10;5.40;;;5.90;80.50;;;5.52;64.79;94683.63;5072229;28;20200;-80
2021/03/16 10:31:39;;;;;;;6.45;5.75;;;5.90;80.40;;;5.59;64.72;94678.56;5067865;28;20223;-80
2021/03/16 10:34:06;;;;;;;7.55;5.47;;;6.00;80.60;;;5.66;63.92;94684.72;5058895;28;20291;-79
2021/03/16 10:36:35;;;;;;;7.93;5.65;;;6.10;80.40;;;5.75;64.50;94678.53;5037127;28;20219;-79
2021/03/16 10:39:05;;;;;;;9.45;5.47;;;6.20;80.60;;;5.79;64.23;94681.59;5054510;28;20261;-79
2021/03/16 10:41:32;;;;;;;5.65;4.90;;;6.20;80.40;;;5.83;63.98;94692.50;5054783;28;20224;-81
2021/03/16 10:43:59;;;;;;;7.72;5.18;;;6.30;80.10;;;5.79;63.71;94696.44;5035437;28;20518;-80
2021/03/16 10:46:26;;;;;;;6.22;4.70;;;6.30;79.70;;;5.63;62.85;94686.84;5070720;28;20576;-80
2021/03/16 10:48:54;;;;;;;7.95;4.93;;;6.40;79.30;;;5.53;63.33;94697.44;5069581;28;20557;-80
2021/03/16 10:51:22;;;;;;;7.28;4.90;;;6.30;79.00;;;5.35;63.10;94695.84;5063555;28;20219;-79
2021/03/16 10:53:49;;;;;;;8.32;4.53;;;6.20;78.60;;;5.22;63.33;94695.53;5067848;28;20606;-80
2021/03/16 10:56:15;;;;;;;5.97;4.85;;;6.10;78.70;;;5.08;63.86;94687.44;5061089;28;20208;-81
2021/03/16 10:58:44;;;;;;;7.93;5.43;;;6.00;78.60;;;4.94;63.59;94690.66;5059092;28;20231;-81
2021/03/16 11:01:13;;;;;;;6.05;4.78;;;6.00;78.60;;;4.88;63.72;94699.94;5051902;28;20219;-79
2021/03/16 11:03:40;;;;;;;7.32;4.80;;;5.90;78.70;;;4.83;63.77;94701.38;5054274;28;20187;-79
2021/03/16 11:06:08;;;;;;;8.43;5.07;;;5.80;78.80;;;4.80;64.64;94695.53;5055134;28;20329;-80
2021/03/16 11:08:34;;;;;;;7.88;4.88;;;5.70;79.10;;;4.83;64.63;94706.59;5055755;28;20195;-79
2021/03/16 11:11:02;;;;;;;5.85;4.80;;;5.70;79.30;;;4.91;64.96;94697.00;5066477;28;20693;-79
2021/03/16 11:13:29;;;;;;;6.65;4.55;;;5.70;79.70;;;5.04;65.51;94700.91;5060969;28;20195;-80
2021/03/16 11:15:55;;;;;;;10.02;5.97;;;5.70;80.10;;;5.19;65.44;94694.09;5039195;28;20226;-78
2021/03/16 11:18:23;;;;;;;6.15;4.88;;;5.80;80.50;;;5.41;65.60;94700.38;5049707;28;20257;-78
2021/03/16 11:20:51;;;;;;;7.20;4.68;;;5.80;80.80;;;5.59;65.35;94691.56;5052348;28;20216;-79
2021/03/16 11:23:19;;;;;;;8.52;5.55;;;5.90;80.90;;;5.76;65.45;94687.97;5061143;28;20188;-80
2021/03/16 11:25:45;;;;;;;7.45;4.97;;;6.10;81.20;;;5.87;64.74;94691.16;5049609;28;20240;-80
2021/03/16 11:28:12;;;;;;;7.32;5.13;;;6.20;81.00;;;5.98;64.94;94695.19;5050004;28;20286;-79
2021/03/16 11:30:39;;;;;;;8.40;5.40;;;6.30;80.90;;;6.03;64.78;94682.50;5041478;28;20203;-80
2021/03/16 11:33:06;;;;;;;7.97;4.97;;;6.40;80.60;;;6.01;64.03;94682.69;5044200;28;20195;-80
2021/03/16 11:35:51;;;;;;;7.90;5.22;;;6.50;80.20;;;5.95;63.65;94691.16;5049564;28;20258;-78